createdAt,value
2018-06-21T00:00:13.058Z,58.86
2018-06-21T00:02:40.890Z,59.66
2018-06-21T00:05:08.820Z,59.67
2018-06-21T00:07:36.690Z,60.08
2018-06-21T00:10:04.621Z,59.53
2018-06-21T00:12:32.362Z,59.38
2018-06-21T00:15:00.278Z,59.29
2018-06-21T00:17:28.059Z,59.52
2018-06-21T00:19:55.816Z,59.98
2018-06-21T00:22:23.541Z,60.04
2018-06-21T00:24:51.365Z,59.75
2018-06-21T00:27:19.170Z,59.79
2018-06-21T00:29:47.029Z,59.31
2018-06-21T00:32:14.824Z,59.33
2018-06-21T00:34:42.583Z,59.25
2018-06-21T00:37:10.288Z,59.08
2018-06-21T00:39:38.118Z,59.13
2018-06-21T00:42:06.194Z,58.99
2018-06-21T00:44:34.077Z,59.68
2018-06-21T00:47:01.941Z,59.85
2018-06-21T00:49:29.865Z,60.18
2018-06-21T00:51:58.534Z,59.49
2018-06-21T00:54:26.388Z,59.20
2018-06-21T00:56:54.193Z,59.04
2018-06-21T00:59:22.255Z,59.42
2018-06-21T01:01:50.270Z,58.59
2018-06-21T01:04:18.058Z,59.55
2018-06-21T01:06:45.760Z,58.67
2018-06-21T01:09:13.101Z,59.33
2018-06-21T01:11:41.011Z,59.18
2018-06-21T01:14:08.820Z,59.24
2018-06-21T01:16:36.631Z,58.86
2018-06-21T01:19:04.390Z,59.18
2018-06-21T01:21:32.122Z,58.44
2018-06-21T01:24:00.034Z,58.33
2018-06-21T01:26:27.970Z,58.52
2018-06-21T01:28:55.823Z,58.51
2018-06-21T01:31:23.526Z,59.00
2018-06-21T01:33:51.336Z,59.15
2018-06-21T01:36:19.170Z,59.01
2018-06-21T01:38:46.920Z,58.39
2018-06-21T01:41:14.676Z,58.75
2018-06-21T01:43:42.462Z,58.87
2018-06-21T01:46:10.204Z,59.43
2018-06-21T01:48:37.948Z,59.66
2018-06-21T01:51:05.710Z,58.87
2018-06-21T01:53:33.477Z,58.87
2018-06-21T01:56:01.237Z,59.61
2018-06-21T01:58:29.191Z,59.70
2018-06-21T02:00:57.026Z,59.44
2018-06-21T02:03:24.848Z,60.03
2018-06-21T02:05:52.582Z,60.01
2018-06-21T02:08:20.312Z,59.29
2018-06-21T02:10:48.114Z,59.19
2018-06-21T02:13:15.901Z,60.07
2018-06-21T02:15:43.734Z,60.02
2018-06-21T02:18:11.654Z,59.32
2018-06-21T02:20:39.673Z,59.42
2018-06-21T02:23:07.620Z,60.23
2018-06-21T02:25:35.634Z,59.53
2018-06-21T02:28:03.591Z,59.62
2018-06-21T02:30:31.687Z,59.79
2018-06-21T02:32:59.675Z,60.38
2018-06-21T02:35:27.627Z,60.26
2018-06-21T02:37:55.976Z,59.75
2018-06-21T02:40:24.740Z,59.92
2018-06-21T02:42:52.677Z,59.56
2018-06-21T02:45:20.724Z,59.15
2018-06-21T02:47:48.787Z,59.59
2018-06-21T02:50:17.064Z,59.87
2018-06-21T02:52:45.122Z,59.76
2018-06-21T02:55:13.224Z,59.55
2018-06-21T02:57:41.212Z,59.82
2018-06-21T03:00:09.471Z,59.62
2018-06-21T03:02:37.495Z,59.49
2018-06-21T03:05:06.082Z,60.04
2018-06-21T03:07:34.067Z,59.95
2018-06-21T03:10:02.105Z,60.12
2018-06-21T03:12:30.147Z,59.17
2018-06-21T03:14:58.078Z,59.76
2018-06-21T03:17:26.105Z,59.27
2018-06-21T03:19:54.081Z,59.55
2018-06-21T03:22:22.071Z,58.95
2018-06-21T03:24:50.492Z,59.05
2018-06-21T03:27:18.779Z,59.45
2018-06-21T03:29:46.820Z,58.61
2018-06-21T03:32:14.979Z,58.78
2018-06-21T03:34:43.795Z,58.80
2018-06-21T03:37:11.590Z,59.64
2018-06-21T03:39:39.466Z,58.90
2018-06-21T03:42:07.262Z,58.78
2018-06-21T03:44:35.308Z,59.26
2018-06-21T03:47:03.196Z,58.74
2018-06-21T03:49:30.979Z,59.00
2018-06-21T03:51:58.684Z,58.45
2018-06-21T03:54:26.622Z,59.10
2018-06-21T03:56:54.612Z,59.20
2018-06-21T03:59:22.501Z,59.25
2018-06-21T04:01:50.470Z,59.23
2018-06-21T04:04:18.287Z,58.78
2018-06-21T04:06:45.997Z,59.28
2018-06-21T04:09:13.828Z,58.80
2018-06-21T04:11:41.549Z,59.20
2018-06-21T04:14:09.312Z,58.71
2018-06-21T04:16:37.595Z,58.63
2018-06-21T04:19:05.367Z,59.23
2018-06-21T04:21:33.291Z,59.28
2018-06-21T04:24:01.220Z,58.44
2018-06-21T04:26:28.955Z,59.21
2018-06-21T04:28:56.754Z,58.54
2018-06-21T04:31:24.600Z,58.66
2018-06-21T04:33:52.406Z,58.12
2018-06-21T04:36:20.090Z,58.58
2018-06-21T04:38:48.267Z,58.87
2018-06-21T04:41:17.165Z,57.94
2018-06-21T04:43:45.192Z,57.89
2018-06-21T04:46:13.120Z,57.84
2018-06-21T04:48:40.931Z,58.41
2018-06-21T04:51:08.720Z,57.72
2018-06-21T04:53:36.594Z,57.78
2018-06-21T04:56:04.354Z,58.05
2018-06-21T04:58:32.190Z,57.70
2018-06-21T05:01:00.179Z,57.81
2018-06-21T05:03:28.289Z,59.39
2018-06-21T05:05:56.215Z,59.81
2018-06-21T05:08:23.942Z,60.03
2018-06-21T05:10:51.741Z,59.62
2018-06-21T05:13:19.558Z,60.08
2018-06-21T05:15:47.347Z,59.90
2018-06-21T05:18:15.237Z,59.53
2018-06-21T05:20:42.969Z,58.91
2018-06-21T05:23:10.605Z,59.33
2018-06-21T05:25:38.392Z,59.19
2018-06-21T05:28:06.184Z,59.21
2018-06-21T05:30:33.902Z,59.08
2018-06-21T05:33:01.673Z,58.53
2018-06-21T05:35:29.529Z,58.56
2018-06-21T05:37:57.339Z,58.94
2018-06-21T05:40:30.975Z,58.36
2018-06-21T05:42:59.788Z,58.72
2018-06-21T05:45:27.536Z,58.59
2018-06-21T05:47:56.543Z,58.33
2018-06-21T05:50:24.390Z,58.21
2018-06-21T05:52:52.218Z,58.08
2018-06-21T05:55:20.273Z,57.66
2018-06-21T06:00:15.145Z,58.01
2018-06-21T06:02:42.994Z,57.68
2018-06-21T06:05:10.877Z,56.90
2018-06-21T06:07:38.697Z,57.59
2018-06-21T06:10:06.502Z,57.38
2018-06-21T06:12:34.633Z,56.94
2018-06-21T06:15:03.413Z,56.46
2018-06-21T06:17:31.497Z,56.57
2018-06-21T06:19:59.697Z,56.81
2018-06-21T06:22:27.314Z,56.11
2018-06-21T06:24:55.083Z,55.60
2018-06-21T06:27:22.901Z,55.97
2018-06-21T06:29:50.802Z,55.66
2018-06-21T06:32:18.582Z,55.91
2018-06-21T06:34:46.504Z,55.82
2018-06-21T06:37:14.247Z,54.87
2018-06-21T06:39:42.109Z,55.68
2018-06-21T06:42:09.937Z,54.65
2018-06-21T06:44:37.639Z,54.46
2018-06-21T06:47:05.554Z,54.60
2018-06-21T06:49:33.333Z,53.95
2018-06-21T06:52:01.178Z,53.83
2018-06-21T06:54:28.943Z,53.63
2018-06-21T06:56:57.539Z,54.27
2018-06-21T06:59:25.553Z,54.34
2018-06-21T07:01:53.361Z,54.28
2018-06-21T07:04:21.186Z,54.26
2018-06-21T07:06:48.857Z,54.17
2018-06-21T07:09:16.737Z,53.53
2018-06-21T07:11:44.707Z,53.73
2018-06-21T07:14:12.619Z,53.58
2018-06-21T07:16:40.391Z,52.87
2018-06-21T07:19:08.228Z,53.24
2018-06-21T07:21:39.061Z,53.23
2018-06-21T07:24:07.455Z,52.60
2018-06-21T07:26:35.750Z,52.88
2018-06-21T07:29:03.528Z,52.45
2018-06-21T07:31:31.373Z,52.96
2018-06-21T07:33:59.407Z,52.93
2018-06-21T07:36:27.418Z,52.88
2018-06-21T07:38:55.492Z,52.28
2018-06-21T07:41:23.324Z,52.81
2018-06-21T07:43:51.145Z,51.97
2018-06-21T07:46:18.947Z,52.17
2018-06-21T07:48:46.752Z,51.64
2018-06-21T07:51:14.606Z,51.59
2018-06-21T07:53:42.533Z,51.59
2018-06-21T07:56:10.498Z,52.04
2018-06-21T07:58:38.383Z,51.15
2018-06-21T08:01:06.298Z,51.17
2018-06-21T08:03:34.106Z,51.57
2018-06-21T08:06:01.819Z,51.47
2018-06-21T08:08:30.519Z,51.50
2018-06-21T08:10:58.639Z,50.59
2018-06-21T08:13:26.414Z,50.40
2018-06-21T08:15:54.249Z,51.11
2018-06-21T08:18:22.281Z,50.29
2018-06-21T08:20:49.992Z,50.97
2018-06-21T08:23:17.782Z,50.28
2018-06-21T08:25:45.522Z,50.02
2018-06-21T08:28:13.403Z,50.96
2018-06-21T08:30:41.145Z,50.72
2018-06-21T08:33:08.885Z,51.46
2018-06-21T08:35:36.668Z,50.77
2018-06-21T08:38:04.504Z,50.41
2018-06-21T08:40:32.307Z,51.16
2018-06-21T08:43:00.256Z,50.25
2018-06-21T08:45:27.973Z,50.54
2018-06-21T08:47:56.319Z,50.22
2018-06-21T08:50:24.057Z,50.68
2018-06-21T08:52:51.884Z,50.73
2018-06-21T08:55:19.646Z,50.37
2018-06-21T08:57:47.417Z,50.07
2018-06-21T09:00:15.875Z,49.18
2018-06-21T09:02:43.601Z,49.08
2018-06-21T09:05:11.397Z,48.85
2018-06-21T09:07:39.453Z,49.20
2018-06-21T09:10:07.256Z,49.06
2018-06-21T09:12:38.228Z,48.72
2018-06-21T09:15:07.764Z,48.47
2018-06-21T09:17:36.004Z,48.59
2018-06-21T09:20:03.754Z,48.44
2018-06-21T09:22:32.111Z,47.73
2018-06-21T09:25:00.419Z,47.84
2018-06-21T09:27:28.197Z,47.96
2018-06-21T09:29:56.640Z,48.10
2018-06-21T09:32:24.864Z,48.01
2018-06-21T09:34:52.561Z,48.99
2018-06-21T09:37:25.837Z,48.53
2018-06-21T09:39:58.973Z,49.28
2018-06-21T09:42:32.308Z,48.75
2018-06-21T09:45:00.079Z,48.85
2018-06-21T09:47:33.569Z,49.30
2018-06-21T09:50:01.778Z,49.49
2018-06-21T09:52:29.549Z,48.87
2018-06-21T09:54:57.436Z,49.62
2018-06-21T09:57:25.307Z,49.11
2018-06-21T09:59:53.170Z,49.74
2018-06-21T10:02:20.989Z,49.16
2018-06-21T10:04:48.809Z,49.19
2018-06-21T10:07:16.894Z,49.80
2018-06-21T10:09:44.800Z,49.67
2018-06-21T10:12:12.580Z,49.33
2018-06-21T10:14:40.553Z,50.58
2018-06-21T10:17:09.309Z,50.38
2018-06-21T10:19:40.769Z,50.76
2018-06-21T10:22:08.927Z,50.25
2018-06-21T10:24:36.887Z,49.83
2018-06-21T10:27:04.899Z,50.46
2018-06-21T10:29:33.214Z,50.45
2018-06-21T10:32:01.023Z,50.89
2018-06-21T10:34:28.885Z,50.77
2018-06-21T10:36:56.721Z,50.07
2018-06-21T10:39:25.376Z,49.66
2018-06-21T10:41:53.431Z,51.05
2018-06-21T10:44:21.197Z,51.40
2018-06-21T10:46:49.213Z,50.84
2018-06-21T10:49:17.144Z,50.78
2018-06-21T10:51:45.019Z,51.53
2018-06-21T10:54:12.861Z,50.43
2018-06-21T10:56:40.662Z,50.28
2018-06-21T10:59:08.906Z,51.10
2018-06-21T11:01:36.791Z,50.08
2018-06-21T11:04:04.526Z,49.98
2018-06-21T11:06:32.335Z,50.75
2018-06-21T11:09:00.135Z,50.53
2018-06-21T11:11:27.947Z,50.22
2018-06-21T11:13:56.005Z,50.79
2018-06-21T11:16:23.926Z,50.50
2018-06-21T11:18:51.710Z,51.14
2018-06-21T11:21:19.641Z,50.73
2018-06-21T11:23:47.327Z,49.85
2018-06-21T11:26:15.153Z,50.29
2018-06-21T11:28:42.965Z,49.62
2018-06-21T11:31:10.756Z,49.36
2018-06-21T11:33:38.741Z,50.05
2018-06-21T11:36:06.637Z,49.15
2018-06-21T11:38:34.458Z,49.27
2018-06-21T11:41:03.651Z,49.66
2018-06-21T11:43:31.714Z,49.55
2018-06-21T11:45:59.545Z,49.65
2018-06-21T11:48:27.537Z,49.22
2018-06-21T11:50:55.369Z,49.68
2018-06-21T11:53:23.255Z,49.59
2018-06-21T11:55:51.072Z,49.38
2018-06-21T11:58:18.937Z,49.23
2018-06-21T12:00:46.664Z,49.00
2018-06-21T12:03:14.631Z,48.10
2018-06-21T12:05:42.759Z,48.28
2018-06-21T12:08:10.718Z,48.31
2018-06-21T12:10:38.917Z,48.09
2018-06-21T12:13:06.953Z,48.52
2018-06-21T12:15:34.999Z,47.75
2018-06-21T12:18:02.982Z,48.03
2018-06-21T12:20:31.058Z,48.26
2018-06-21T12:22:58.873Z,49.29
2018-06-21T12:25:26.795Z,48.19
2018-06-21T12:27:54.509Z,47.94
2018-06-21T12:30:22.485Z,49.02
2018-06-21T12:32:50.202Z,48.95
2018-06-21T12:35:17.983Z,48.90
2018-06-21T12:37:46.194Z,48.08
2018-06-21T12:40:14.053Z,48.06
2018-06-21T12:42:41.934Z,48.76
2018-06-21T12:45:09.790Z,48.73
2018-06-21T12:47:37.825Z,48.77
2018-06-21T12:50:05.634Z,48.45
2018-06-21T12:52:35.470Z,48.97
2018-06-21T12:55:03.307Z,48.78
2018-06-21T12:57:30.992Z,48.58
2018-06-21T12:59:58.951Z,48.90
2018-06-21T13:02:26.715Z,48.21
2018-06-21T13:04:54.549Z,47.86
2018-06-21T13:07:22.296Z,47.53
2018-06-21T13:10:01.256Z,47.59
2018-06-21T13:15:02.756Z,47.53
2018-06-21T13:17:31.384Z,47.96
2018-06-21T13:20:02.747Z,48.88
2018-06-21T13:22:31.030Z,48.17
2018-06-21T13:24:58.912Z,48.25
2018-06-21T13:27:30.199Z,49.07
2018-06-21T13:29:58.233Z,48.92
2018-06-21T13:32:25.997Z,49.02
2018-06-21T13:34:53.792Z,49.21
2018-06-21T13:37:21.553Z,48.83
2018-06-21T13:39:49.514Z,48.78
2018-06-21T13:42:17.382Z,49.70
2018-06-21T13:44:45.164Z,49.59
2018-06-21T13:47:13.006Z,50.20
2018-06-21T13:49:40.746Z,50.46
2018-06-21T13:52:09.297Z,50.60
2018-06-21T13:54:37.483Z,50.32
2018-06-21T13:57:05.309Z,50.46
2018-06-21T13:59:32.982Z,50.23
2018-06-21T14:02:00.759Z,50.29
2018-06-21T14:04:28.685Z,50.45
2018-06-21T14:06:56.641Z,50.46
2018-06-21T14:09:24.361Z,50.23
2018-06-21T14:11:52.113Z,50.08
2018-06-21T14:14:19.798Z,50.10
2018-06-21T14:16:47.684Z,50.02
2018-06-21T14:19:15.449Z,50.23
2018-06-21T14:21:43.430Z,50.13
2018-06-21T14:24:13.152Z,49.80
2018-06-21T14:26:41.312Z,48.79
2018-06-21T14:29:09.454Z,50.14
2018-06-21T14:31:37.331Z,50.72
2018-06-21T14:34:05.130Z,50.13
2018-06-21T14:36:33.284Z,50.42
2018-06-21T14:39:01.188Z,47.91
2018-06-21T14:41:29.305Z,44.89
2018-06-21T14:43:57.031Z,40.95
2018-06-21T14:46:24.881Z,39.67
2018-06-21T14:48:52.722Z,37.81
2018-06-21T14:51:20.498Z,37.33
2018-06-21T14:53:48.723Z,37.25
2018-06-21T14:56:16.632Z,38.89
2018-06-21T15:01:06.032Z,44.54
2018-06-21T15:03:33.916Z,46.55
2018-06-21T15:06:01.769Z,46.80
2018-06-21T15:08:29.669Z,46.10
2018-06-21T15:10:57.391Z,47.14
2018-06-21T15:13:25.099Z,47.14
2018-06-21T15:15:52.863Z,47.98
2018-06-21T15:18:20.561Z,47.66
2018-06-21T15:20:48.526Z,48.17
2018-06-21T15:23:16.295Z,47.68
2018-06-21T15:25:44.049Z,47.55
2018-06-21T15:28:11.866Z,47.52
2018-06-21T15:30:39.720Z,47.66
2018-06-21T15:33:07.500Z,47.17
2018-06-21T15:35:35.206Z,47.88
2018-06-21T15:38:02.965Z,47.81
2018-06-21T15:40:30.810Z,47.93
2018-06-21T15:42:58.554Z,48.22
2018-06-21T15:45:26.447Z,48.82
2018-06-21T15:47:54.226Z,49.28
2018-06-21T15:50:21.970Z,49.53
2018-06-21T15:52:49.849Z,49.90
2018-06-21T15:55:17.659Z,49.46
2018-06-21T15:57:45.318Z,49.54
2018-06-21T16:00:13.229Z,50.38
2018-06-21T16:02:41.738Z,50.15
2018-06-21T16:05:09.728Z,49.31
2018-06-21T16:07:37.647Z,49.03
2018-06-21T16:10:05.848Z,49.89
2018-06-21T16:12:33.578Z,49.70
2018-06-21T16:15:01.389Z,49.92
2018-06-21T16:17:29.239Z,49.34
2018-06-21T16:19:57.018Z,48.90
2018-06-21T16:22:24.844Z,48.76
2018-06-21T16:24:52.597Z,49.98
2018-06-21T16:27:20.523Z,50.44
2018-06-21T16:29:48.380Z,49.88
2018-06-21T16:32:16.236Z,49.75
2018-06-21T16:34:44.193Z,49.79
2018-06-21T16:37:12.033Z,49.45
2018-06-21T16:39:40.032Z,48.34
2018-06-21T16:42:07.880Z,48.05
2018-06-21T16:44:35.809Z,49.21
2018-06-21T16:47:03.574Z,49.39
2018-06-21T16:49:31.479Z,49.08
2018-06-21T16:51:59.248Z,49.37
2018-06-21T16:54:27.137Z,49.08
2018-06-21T16:56:55.037Z,50.22
2018-06-21T16:59:22.800Z,49.55
2018-06-21T17:01:50.632Z,50.42
2018-06-21T17:04:18.362Z,50.13
2018-06-21T17:06:46.311Z,50.86
2018-06-21T17:09:14.192Z,49.43
2018-06-21T17:11:42.132Z,48.91
2018-06-21T17:14:10.279Z,48.05
2018-06-21T17:16:38.041Z,47.55
2018-06-21T17:19:07.191Z,47.43
2018-06-21T17:21:35.937Z,46.82
2018-06-21T17:24:04.367Z,48.04
2018-06-21T17:26:32.200Z,48.34
2018-06-21T17:29:00.166Z,49.35
2018-06-21T17:31:28.027Z,48.99
2018-06-21T17:33:55.930Z,49.59
2018-06-21T17:36:24.576Z,49.22
2018-06-21T17:38:54.003Z,49.09
2018-06-21T17:41:21.992Z,49.28
2018-06-21T17:43:49.980Z,49.29
2018-06-21T17:46:17.746Z,49.33
2018-06-21T17:48:45.611Z,50.16
2018-06-21T17:51:13.644Z,49.84
2018-06-21T17:53:41.320Z,49.94
2018-06-21T17:56:09.048Z,49.64
2018-06-21T17:58:36.742Z,48.53
2018-06-21T18:01:04.578Z,47.63
2018-06-21T18:03:32.338Z,47.68
2018-06-21T18:06:00.198Z,48.02
2018-06-21T18:08:28.154Z,48.10
2018-06-21T18:10:55.981Z,49.05
2018-06-21T18:13:23.882Z,48.79
2018-06-21T18:15:51.610Z,49.14
2018-06-21T18:18:19.546Z,48.47
2018-06-21T18:20:47.680Z,48.93
2018-06-21T18:23:15.471Z,49.42
2018-06-21T18:25:43.221Z,50.07
2018-06-21T18:28:11.053Z,49.08
2018-06-21T18:30:38.946Z,49.22
2018-06-21T18:33:06.716Z,49.51
2018-06-21T18:35:34.666Z,49.86
2018-06-21T18:38:02.505Z,49.91
2018-06-21T18:40:30.499Z,50.66
2018-06-21T18:42:58.346Z,50.22
2018-06-21T18:45:26.148Z,50.22
2018-06-21T18:47:54.022Z,50.83
2018-06-21T18:50:21.985Z,50.94
2018-06-21T18:52:49.835Z,50.47
2018-06-21T18:55:17.597Z,50.69
2018-06-21T18:57:45.397Z,51.15
2018-06-21T19:00:20.112Z,51.49
2018-06-21T19:02:48.033Z,51.30
2018-06-21T19:05:16.025Z,50.82
2018-06-21T19:07:43.934Z,51.54
2018-06-21T19:10:17.510Z,51.19
2018-06-21T19:12:45.467Z,50.69
2018-06-21T19:15:13.327Z,51.22
2018-06-21T19:17:41.256Z,50.38
2018-06-21T19:20:09.134Z,50.82
2018-06-21T19:22:37.105Z,49.79
2018-06-21T19:25:04.967Z,50.08
2018-06-21T19:27:32.779Z,50.78
2018-06-21T19:30:00.737Z,51.08
2018-06-21T19:32:28.661Z,51.24
2018-06-21T19:34:57.904Z,50.90
2018-06-21T19:37:26.351Z,51.64
2018-06-21T19:39:54.320Z,52.01
2018-06-21T19:42:22.207Z,51.85
2018-06-21T19:44:50.112Z,51.51
2018-06-21T19:47:18.171Z,52.19
2018-06-21T19:49:46.303Z,51.60
2018-06-21T19:52:14.129Z,52.20
2018-06-21T19:54:42.008Z,51.67
2018-06-21T19:57:09.969Z,52.44
2018-06-21T19:59:37.878Z,52.45
2018-06-21T20:02:05.697Z,52.08
2018-06-21T20:04:33.655Z,51.92
2018-06-21T20:07:01.589Z,52.05
2018-06-21T20:09:29.445Z,52.80
2018-06-21T20:11:57.322Z,52.73
2018-06-21T20:14:25.143Z,52.02
2018-06-21T20:16:53.029Z,52.57
2018-06-21T20:19:20.991Z,52.16
2018-06-21T20:21:48.890Z,52.16
2018-06-21T20:24:16.895Z,52.14
2018-06-21T20:26:44.740Z,52.32
2018-06-21T20:29:18.594Z,52.54
2018-06-21T20:31:46.510Z,52.95
2018-06-21T20:34:14.525Z,52.26
2018-06-21T20:36:42.281Z,52.24
2018-06-21T20:39:11.140Z,52.18
2018-06-21T20:41:38.954Z,52.85
2018-06-21T20:44:06.791Z,52.63
2018-06-21T20:46:35.081Z,52.88
2018-06-21T20:49:03.059Z,52.78
2018-06-21T20:51:30.915Z,52.80
2018-06-21T20:53:58.657Z,52.12
2018-06-21T20:56:26.554Z,51.98
2018-06-21T20:58:54.332Z,52.75
2018-06-21T21:01:22.191Z,52.35
2018-06-21T21:03:50.155Z,52.75
2018-06-21T21:06:18.126Z,52.75
2018-06-21T21:08:45.934Z,52.77
2018-06-21T21:11:13.847Z,52.95
2018-06-21T21:13:41.557Z,52.94
2018-06-21T21:16:09.313Z,52.97
2018-06-21T21:18:37.083Z,52.96
2018-06-21T21:21:04.918Z,52.75
2018-06-21T21:23:32.729Z,52.43
2018-06-21T21:26:00.490Z,52.40
2018-06-21T21:28:28.238Z,52.85
2018-06-21T21:30:56.058Z,52.91
2018-06-21T21:33:23.954Z,52.46
2018-06-21T21:35:51.816Z,52.41
2018-06-21T21:38:19.576Z,53.00
2018-06-21T21:40:47.271Z,53.19
2018-06-21T21:43:15.097Z,53.23
2018-06-21T21:45:42.977Z,53.26
2018-06-21T21:48:10.871Z,52.61
2018-06-21T21:50:38.650Z,53.10
2018-06-21T21:53:06.604Z,53.32
2018-06-21T21:55:34.406Z,52.68
2018-06-21T21:58:02.181Z,52.82
2018-06-21T22:00:52.987Z,52.82
2018-06-21T22:03:20.725Z,53.37
2018-06-21T22:05:48.434Z,52.75
2018-06-21T22:08:16.214Z,53.40
2018-06-21T22:10:44.759Z,53.37
2018-06-21T22:13:12.961Z,54.14
2018-06-21T22:15:40.799Z,54.08
2018-06-21T22:18:08.667Z,53.42
2018-06-21T22:20:36.589Z,53.84
2018-06-21T22:23:04.380Z,54.25
2018-06-21T22:25:32.047Z,53.63
2018-06-21T22:28:00.270Z,53.45
2018-06-21T22:30:28.981Z,53.31
2018-06-21T22:32:56.803Z,53.40
2018-06-21T22:35:24.557Z,53.96
2018-06-21T22:37:52.356Z,53.96
2018-06-21T22:40:20.226Z,54.04
2018-06-21T22:42:47.980Z,53.30
2018-06-21T22:45:15.782Z,53.38
2018-06-21T22:47:43.577Z,53.35
2018-06-21T22:50:11.400Z,54.01
2018-06-21T22:52:39.595Z,53.55
2018-06-21T22:55:07.353Z,54.41
2018-06-21T22:57:35.189Z,54.63
2018-06-21T23:00:02.967Z,54.78
2018-06-21T23:02:30.858Z,54.06
2018-06-21T23:04:58.932Z,54.60
2018-06-21T23:07:26.655Z,54.58
2018-06-21T23:09:54.640Z,54.74
2018-06-21T23:12:22.647Z,54.08
2018-06-21T23:14:50.495Z,53.98
2018-06-21T23:17:18.245Z,54.74
2018-06-21T23:19:46.039Z,54.32
2018-06-21T23:22:13.866Z,54.65
2018-06-21T23:24:41.581Z,54.74
2018-06-21T23:27:09.498Z,54.34
2018-06-21T23:29:37.258Z,53.88
2018-06-21T23:32:05.017Z,53.90
2018-06-21T23:34:33.010Z,54.51
2018-06-21T23:37:00.790Z,54.12
2018-06-21T23:39:28.552Z,54.39
2018-06-21T23:41:56.436Z,54.46
2018-06-21T23:44:24.321Z,54.44
2018-06-21T23:46:52.329Z,54.40
2018-06-21T23:49:20.155Z,54.65
2018-06-21T23:51:47.968Z,54.64
2018-06-21T23:54:15.670Z,54.38
2018-06-21T23:56:44.164Z,54.67
2018-06-21T23:59:12.029Z,54.25
